sensor_id;sensor_type;location;lat;lon;timestamp;P1;durP1;ratioP1;P2;durP2;ratioP2
39822;SDS011;25499;53.958;10.970;2023-07-02T05:19:22;13.70;;;4.75;;
39822;SDS011;25499;53.958;10.970;2023-07-02T05:21:49;16.27;;;4.95;;
39822;SDS011;25499;53.958;10.970;2023-07-02T05:24:16;14.45;;;4.82;;
39822;SDS011;25499;53.958;10.970;2023-07-02T05:26:43;11.93;;;4.25;;
39822;SDS011;25499;53.958;10.970;2023-07-02T05:29:10;14.05;;;4.50;;
39822;SDS011;25499;53.958;10.970;2023-07-02T05:31:36;14.23;;;5.03;;
39822;SDS011;25499;53.958;10.970;2023-07-02T05:34:03;13.80;;;4.95;;
39822;SDS011;25499;53.958;10.970;2023-07-02T05:36:32;13.48;;;5.03;;
39822;SDS011;25499;53.958;10.970;2023-07-02T05:38:59;16.65;;;5.32;;
39822;SDS011;25499;53.958;10.970;2023-07-02T05:41:26;10.93;;;4.70;;
39822;SDS011;25499;53.958;10.970;2023-07-02T05:43:55;15.15;;;5.05;;
39822;SDS011;25499;53.958;10.970;2023-07-02T05:46:22;14.68;;;5.00;;
39822;SDS011;25499;53.958;10.970;2023-07-02T05:48:50;17.65;;;5.28;;
39822;SDS011;25499;53.958;10.970;2023-07-02T05:51:19;18.23;;;4.97;;
39822;SDS011;25499;53.958;10.970;2023-07-02T05:53:48;17.83;;;5.05;;
39822;SDS011;25499;53.958;10.970;2023-07-02T05:56:15;15.32;;;5.32;;
39822;SDS011;25499;53.958;10.970;2023-07-02T05:58:43;21.55;;;5.75;;
39822;SDS011;25499;53.958;10.970;2023-07-02T06:01:10;22.90;;;5.68;;
39822;SDS011;25499;53.958;10.970;2023-07-02T06:03:37;12.15;;;5.00;;
39822;SDS011;25499;53.958;10.970;2023-07-02T06:06:03;15.27;;;5.55;;
39822;SDS011;25499;53.958;10.970;2023-07-02T06:08:30;16.02;;;4.82;;
39822;SDS011;25499;53.958;10.970;2023-07-02T06:10:58;15.82;;;5.03;;
39822;SDS011;25499;53.958;10.970;2023-07-02T06:13:25;17.67;;;5.78;;
39822;SDS011;25499;53.958;10.970;2023-07-02T06:15:52;17.58;;;6.07;;
39822;SDS011;25499;53.958;10.970;2023-07-02T06:18:19;17.58;;;5.80;;
39822;SDS011;25499;53.958;10.970;2023-07-02T06:20:46;20.90;;;6.10;;
39822;SDS011;25499;53.958;10.970;2023-07-02T06:23:13;17.27;;;6.03;;
39822;SDS011;25499;53.958;10.970;2023-07-02T06:25:39;15.55;;;5.57;;
39822;SDS011;25499;53.958;10.970;2023-07-02T06:28:09;18.08;;;6.13;;
39822;SDS011;25499;53.958;10.970;2023-07-02T06:30:36;18.77;;;5.35;;
39822;SDS011;25499;53.958;10.970;2023-07-02T06:33:03;15.27;;;5.57;;
39822;SDS011;25499;53.958;10.970;2023-07-02T06:35:30;14.18;;;6.00;;
39822;SDS011;25499;53.958;10.970;2023-07-02T06:37:56;16.95;;;6.35;;
39822;SDS011;25499;53.958;10.970;2023-07-02T06:40:23;14.00;;;5.47;;
39822;SDS011;25499;53.958;10.970;2023-07-02T06:42:51;19.02;;;6.80;;
39822;SDS011;25499;53.958;10.970;2023-07-02T06:45:19;22.80;;;6.25;;
39822;SDS011;25499;53.958;10.970;2023-07-02T06:47:46;14.65;;;6.38;;
39822;SDS011;25499;53.958;10.970;2023-07-02T06:50:13;15.93;;;6.13;;
39822;SDS011;25499;53.958;10.970;2023-07-02T06:52:40;17.90;;;6.10;;
39822;SDS011;25499;53.958;10.970;2023-07-02T06:55:07;23.73;;;6.80;;
39822;SDS011;25499;53.958;10.970;2023-07-02T06:57:34;26.38;;;6.53;;
39822;SDS011;25499;53.958;10.970;2023-07-02T07:00:01;22.52;;;6.25;;
39822;SDS011;25499;53.958;10.970;2023-07-02T07:02:31;20.73;;;6.18;;
39822;SDS011;25499;53.958;10.970;2023-07-02T07:04:57;21.33;;;6.53;;
39822;SDS011;25499;53.958;10.970;2023-07-02T07:07:24;17.33;;;5.90;;
39822;SDS011;25499;53.958;10.970;2023-07-02T07:09:51;17.55;;;6.30;;
39822;SDS011;25499;53.958;10.970;2023-07-02T07:12:17;19.92;;;6.82;;
39822;SDS011;25499;53.958;10.970;2023-07-02T07:14:44;15.05;;;5.70;;
39822;SDS011;25499;53.958;10.970;2023-07-02T07:17:11;18.73;;;6.10;;
39822;SDS011;25499;53.958;10.970;2023-07-02T07:19:39;17.48;;;5.80;;
39822;SDS011;25499;53.958;10.970;2023-07-02T07:22:06;22.00;;;6.03;;
39822;SDS011;25499;53.958;10.970;2023-07-02T07:24:33;23.13;;;6.38;;
39822;SDS011;25499;53.958;10.970;2023-07-02T07:27:00;19.67;;;6.03;;
39822;SDS011;25499;53.958;10.970;2023-07-02T07:29:26;16.30;;;6.15;;
39822;SDS011;25499;53.958;10.970;2023-07-02T07:31:54;19.25;;;6.38;;
39822;SDS011;25499;53.958;10.970;2023-07-02T07:34:20;22.70;;;5.85;;
39822;SDS011;25499;53.958;10.970;2023-07-02T07:36:49;14.38;;;6.13;;
39822;SDS011;25499;53.958;10.970;2023-07-02T07:39:15;21.38;;;5.68;;
39822;SDS011;25499;53.958;10.970;2023-07-02T07:41:46;16.05;;;6.35;;
39822;SDS011;25499;53.958;10.970;2023-07-02T07:44:13;15.45;;;5.65;;
39822;SDS011;25499;53.958;10.970;2023-07-02T07:46:40;26.42;;;6.18;;
39822;SDS011;25499;53.958;10.970;2023-07-02T07:49:06;20.50;;;5.32;;
39822;SDS011;25499;53.958;10.970;2023-07-02T07:51:33;16.98;;;6.35;;
39822;SDS011;25499;53.958;10.970;2023-07-02T07:54:02;16.45;;;5.95;;
39822;SDS011;25499;53.958;10.970;2023-07-02T07:56:29;18.73;;;6.00;;
39822;SDS011;25499;53.958;10.970;2023-07-02T07:58:56;14.95;;;5.90;;
39822;SDS011;25499;53.958;10.970;2023-07-02T08:01:25;15.45;;;5.82;;
39822;SDS011;25499;53.958;10.970;2023-07-02T08:03:53;15.40;;;5.75;;
39822;SDS011;25499;53.958;10.970;2023-07-02T08:06:19;15.68;;;6.10;;
39822;SDS011;25499;53.958;10.970;2023-07-02T08:08:46;23.42;;;5.82;;
39822;SDS011;25499;53.958;10.970;2023-07-02T08:11:14;23.48;;;6.28;;
39822;SDS011;25499;53.958;10.970;2023-07-02T08:13:42;23.05;;;5.97;;
39822;SDS011;25499;53.958;10.970;2023-07-02T08:16:09;18.38;;;6.05;;
39822;SDS011;25499;53.958;10.970;2023-07-02T08:18:35;21.52;;;6.00;;
39822;SDS011;25499;53.958;10.970;2023-07-02T08:21:02;17.80;;;5.25;;
39822;SDS011;25499;53.958;10.970;2023-07-02T08:23:31;10.82;;;5.20;;
39822;SDS011;25499;53.958;10.970;2023-07-02T08:25:58;11.60;;;4.82;;
39822;SDS011;25499;53.958;10.970;2023-07-02T08:28:26;15.70;;;5.00;;
39822;SDS011;25499;53.958;10.970;2023-07-02T08:30:53;16.98;;;4.80;;
39822;SDS011;25499;53.958;10.970;2023-07-02T08:33:19;12.45;;;4.70;;
39822;SDS011;25499;53.958;10.970;2023-07-02T08:35:46;14.85;;;5.15;;
39822;SDS011;25499;53.958;10.970;2023-07-02T08:38:13;18.05;;;5.30;;
39822;SDS011;25499;53.958;10.970;2023-07-02T08:40:40;13.77;;;5.32;;
39822;SDS011;25499;53.958;10.970;2023-07-02T08:43:07;15.90;;;5.13;;
39822;SDS011;25499;53.958;10.970;2023-07-02T08:45:35;12.88;;;4.57;;
39822;SDS011;25499;53.958;10.970;2023-07-02T08:48:03;20.85;;;5.07;;
39822;SDS011;25499;53.958;10.970;2023-07-02T08:50:30;16.05;;;5.80;;
39822;SDS011;25499;53.958;10.970;2023-07-02T08:52:57;19.27;;;5.03;;
39822;SDS011;25499;53.958;10.970;2023-07-02T08:55:24;18.70;;;5.60;;
39822;SDS011;25499;53.958;10.970;2023-07-02T09:00:25;19.08;;;5.97;;
39822;SDS011;25499;53.958;10.970;2023-07-02T09:02:53;15.98;;;5.00;;
39822;SDS011;25499;53.958;10.970;2023-07-02T09:05:20;18.48;;;5.80;;
39822;SDS011;25499;53.958;10.970;2023-07-02T09:07:47;13.20;;;5.72;;
39822;SDS011;25499;53.958;10.970;2023-07-02T09:10:25;18.20;;;5.97;;
39822;SDS011;25499;53.958;10.970;2023-07-02T09:13:02;15.27;;;5.90;;
39822;SDS011;25499;53.958;10.970;2023-07-02T09:15:34;12.73;;;5.95;;
39822;SDS011;25499;53.958;10.970;2023-07-02T09:18:13;16.00;;;5.85;;
39822;SDS011;25499;53.958;10.970;2023-07-02T09:20:41;16.55;;;5.38;;
39822;SDS011;25499;53.958;10.970;2023-07-02T09:23:07;17.83;;;5.43;;
39822;SDS011;25499;53.958;10.970;2023-07-02T09:25:36;35.63;;;7.18;;
39822;SDS011;25499;53.958;10.970;2023-07-02T09:28:13;18.42;;;6.25;;
39822;SDS011;25499;53.958;10.970;2023-07-02T09:30:48;18.63;;;5.90;;
39822;SDS011;25499;53.958;10.970;2023-07-02T09:33:17;24.55;;;6.50;;
39822;SDS011;25499;53.958;10.970;2023-07-02T09:35:45;16.85;;;5.68;;
39822;SDS011;25499;53.958;10.970;2023-07-02T09:38:12;15.07;;;5.35;;
39822;SDS011;25499;53.958;10.970;2023-07-02T09:40:44;13.30;;;4.60;;
39822;SDS011;25499;53.958;10.970;2023-07-02T09:43:13;19.00;;;4.70;;
39822;SDS011;25499;53.958;10.970;2023-07-02T09:45:42;10.23;;;3.97;;
39822;SDS011;25499;53.958;10.970;2023-07-02T09:48:12;15.40;;;4.07;;
39822;SDS011;25499;53.958;10.970;2023-07-02T09:50:42;15.50;;;3.85;;
39822;SDS011;25499;53.958;10.970;2023-07-02T09:53:10;16.30;;;4.50;;
39822;SDS011;25499;53.958;10.970;2023-07-02T09:55:37;13.68;;;3.85;;
39822;SDS011;25499;53.958;10.970;2023-07-02T09:58:04;12.95;;;3.95;;
39822;SDS011;25499;53.958;10.970;2023-07-02T10:00:31;17.63;;;4.68;;
39822;SDS011;25499;53.958;10.970;2023-07-02T10:02:58;14.05;;;4.38;;
39822;SDS011;25499;53.958;10.970;2023-07-02T10:05:26;13.00;;;4.65;;
39822;SDS011;25499;53.958;10.970;2023-07-02T10:07:55;13.75;;;5.07;;
39822;SDS011;25499;53.958;10.970;2023-07-02T10:10:27;14.27;;;4.72;;
39822;SDS011;25499;53.958;10.970;2023-07-02T10:12:54;13.48;;;4.38;;
39822;SDS011;25499;53.958;10.970;2023-07-02T10:17:54;12.68;;;3.83;;
39822;SDS011;25499;53.958;10.970;2023-07-02T10:20:31;13.73;;;3.83;;
39822;SDS011;25499;53.958;10.970;2023-07-02T10:23:00;16.17;;;3.70;;
39822;SDS011;25499;53.958;10.970;2023-07-02T10:25:28;10.55;;;3.40;;
39822;SDS011;25499;53.958;10.970;2023-07-02T10:27:56;13.02;;;3.97;;
39822;SDS011;25499;53.958;10.970;2023-07-02T10:30:33;14.75;;;4.05;;
39822;SDS011;25499;53.958;10.970;2023-07-02T10:33:07;16.30;;;4.22;;
39822;SDS011;25499;53.958;10.970;2023-07-02T10:35:35;10.23;;;3.65;;
39822;SDS011;25499;53.958;10.970;2023-07-02T10:38:03;10.35;;;3.72;;
39822;SDS011;25499;53.958;10.970;2023-07-02T10:40:31;18.67;;;3.63;;
39822;SDS011;25499;53.958;10.970;2023-07-02T10:42:59;7.63;;;3.13;;
39822;SDS011;25499;53.958;10.970;2023-07-02T10:45:32;10.60;;;3.70;;
39822;SDS011;25499;53.958;10.970;2023-07-02T10:48:03;10.75;;;3.30;;
39822;SDS011;25499;53.958;10.970;2023-07-02T10:50:34;8.57;;;3.30;;
39822;SDS011;25499;53.958;10.970;2023-07-02T10:53:02;14.50;;;3.50;;
39822;SDS011;25499;53.958;10.970;2023-07-02T10:55:30;9.38;;;3.03;;
39822;SDS011;25499;53.958;10.970;2023-07-02T10:58:04;16.80;;;3.30;;
39822;SDS011;25499;53.958;10.970;2023-07-02T11:00:32;11.43;;;3.40;;
39822;SDS011;25499;53.958;10.970;2023-07-02T11:02:59;10.25;;;3.38;;
39822;SDS011;25499;53.958;10.970;2023-07-02T11:05:26;9.07;;;3.20;;
39822;SDS011;25499;53.958;10.970;2023-07-02T11:07:53;10.20;;;3.50;;
39822;SDS011;25499;53.958;10.970;2023-07-02T11:10:23;8.73;;;3.67;;
39822;SDS011;25499;53.958;10.970;2023-07-02T11:12:52;11.73;;;3.80;;
39822;SDS011;25499;53.958;10.970;2023-07-02T11:15:19;9.10;;;3.45;;
39822;SDS011;25499;53.958;10.970;2023-07-02T11:17:46;13.90;;;4.38;;
39822;SDS011;25499;53.958;10.970;2023-07-02T11:20:13;13.07;;;4.20;;
39822;SDS011;25499;53.958;10.970;2023-07-02T11:22:40;21.48;;;4.10;;
39822;SDS011;25499;53.958;10.970;2023-07-02T11:25:11;16.27;;;3.30;;
39822;SDS011;25499;53.958;10.970;2023-07-02T11:27:39;11.02;;;2.72;;
39822;SDS011;25499;53.958;10.970;2023-07-02T11:30:07;11.13;;;3.33;;
39822;SDS011;25499;53.958;10.970;2023-07-02T11:32:35;13.15;;;3.28;;
39822;SDS011;25499;53.958;10.970;2023-07-02T11:35:14;9.07;;;2.80;;
39822;SDS011;25499;53.958;10.970;2023-07-02T11:37:42;13.93;;;2.88;;
39822;SDS011;25499;53.958;10.970;2023-07-02T11:40:10;14.63;;;3.00;;
39822;SDS011;25499;53.958;10.970;2023-07-02T11:42:37;10.38;;;2.90;;
39822;SDS011;25499;53.958;10.970;2023-07-02T11:45:06;8.48;;;2.67;;
39822;SDS011;25499;53.958;10.970;2023-07-02T11:47:34;11.05;;;2.50;;
39822;SDS011;25499;53.958;10.970;2023-07-02T11:50:01;10.73;;;2.25;;
39822;SDS011;25499;53.958;10.970;2023-07-02T11:52:28;8.40;;;1.90;;
39822;SDS011;25499;53.958;10.970;2023-07-02T11:54:54;17.10;;;2.58;;
39822;SDS011;25499;53.958;10.970;2023-07-02T11:57:21;9.27;;;2.45;;
39822;SDS011;25499;53.958;10.970;2023-07-02T11:59:51;14.20;;;3.00;;
39822;SDS011;25499;53.958;10.970;2023-07-02T12:02:18;9.05;;;2.60;;
39822;SDS011;25499;53.958;10.970;2023-07-02T12:04:45;10.60;;;2.90;;
39822;SDS011;25499;53.958;10.970;2023-07-02T12:07:11;11.38;;;2.00;;
39822;SDS011;25499;53.958;10.970;2023-07-02T12:09:38;7.15;;;2.40;;
39822;SDS011;25499;53.958;10.970;2023-07-02T12:12:06;10.70;;;2.65;;
39822;SDS011;25499;53.958;10.970;2023-07-02T12:14:33;7.45;;;2.00;;
39822;SDS011;25499;53.958;10.970;2023-07-02T12:17:01;8.80;;;2.15;;
39822;SDS011;25499;53.958;10.970;2023-07-02T12:19:29;9.48;;;2.50;;
39822;SDS011;25499;53.958;10.970;2023-07-02T12:21:55;8.07;;;2.25;;
39822;SDS011;25499;53.958;10.970;2023-07-02T12:24:22;8.05;;;2.10;;
39822;SDS011;25499;53.958;10.970;2023-07-02T12:26:50;10.15;;;2.03;;
39822;SDS011;25499;53.958;10.970;2023-07-02T12:29:17;9.07;;;2.15;;
39822;SDS011;25499;53.958;10.970;2023-07-02T12:31:44;9.07;;;1.80;;
39822;SDS011;25499;53.958;10.970;2023-07-02T12:34:12;7.80;;;1.83;;
39822;SDS011;25499;53.958;10.970;2023-07-02T12:36:39;7.95;;;2.15;;
39822;SDS011;25499;53.958;10.970;2023-07-02T12:39:07;7.22;;;2.15;;
39822;SDS011;25499;53.958;10.970;2023-07-02T12:41:34;7.38;;;1.85;;
39822;SDS011;25499;53.958;10.970;2023-07-02T12:44:01;8.77;;;2.10;;
39822;SDS011;25499;53.958;10.970;2023-07-02T12:46:28;17.05;;;2.53;;
39822;SDS011;25499;53.958;10.970;2023-07-02T12:48:54;11.68;;;2.33;;
39822;SDS011;25499;53.958;10.970;2023-07-02T12:51:23;7.85;;;2.17;;
39822;SDS011;25499;53.958;10.970;2023-07-02T12:53:49;10.07;;;2.00;;
39822;SDS011;25499;53.958;10.970;2023-07-02T12:56:16;6.10;;;2.10;;
39822;SDS011;25499;53.958;10.970;2023-07-02T12:58:43;5.32;;;2.10;;
39822;SDS011;25499;53.958;10.970;2023-07-02T13:01:10;9.73;;;2.13;;
39822;SDS011;25499;53.958;10.970;2023-07-02T13:03:37;7.28;;;2.13;;
39822;SDS011;25499;53.958;10.970;2023-07-02T13:06:04;8.38;;;2.30;;
39822;SDS011;25499;53.958;10.970;2023-07-02T13:08:32;11.90;;;2.15;;
39822;SDS011;25499;53.958;10.970;2023-07-02T13:10:59;11.60;;;2.30;;
39822;SDS011;25499;53.958;10.970;2023-07-02T13:13:25;12.38;;;2.25;;
39822;SDS011;25499;53.958;10.970;2023-07-02T13:15:52;7.45;;;2.22;;
39822;SDS011;25499;53.958;10.970;2023-07-02T13:18:19;11.82;;;2.03;;
39822;SDS011;25499;53.958;10.970;2023-07-02T13:20:46;10.18;;;2.05;;
39822;SDS011;25499;53.958;10.970;2023-07-02T13:23:12;7.30;;;2.00;;
39822;SDS011;25499;53.958;10.970;2023-07-02T13:25:42;6.78;;;2.25;;
39822;SDS011;25499;53.958;10.970;2023-07-02T13:28:09;11.25;;;2.80;;
39822;SDS011;25499;53.958;10.970;2023-07-02T13:30:35;8.95;;;2.10;;
39822;SDS011;25499;53.958;10.970;2023-07-02T13:33:02;10.50;;;2.40;;
39822;SDS011;25499;53.958;10.970;2023-07-02T13:35:29;11.98;;;2.47;;
39822;SDS011;25499;53.958;10.970;2023-07-02T13:37:56;8.13;;;2.17;;
39822;SDS011;25499;53.958;10.970;2023-07-02T13:40:24;8.48;;;2.25;;
39822;SDS011;25499;53.958;10.970;2023-07-02T13:42:52;9.20;;;2.22;;
39822;SDS011;25499;53.958;10.970;2023-07-02T13:45:20;8.93;;;1.80;;
39822;SDS011;25499;53.958;10.970;2023-07-02T13:47:47;7.90;;;1.95;;
39822;SDS011;25499;53.958;10.970;2023-07-02T13:50:14;9.98;;;1.92;;
39822;SDS011;25499;53.958;10.970;2023-07-02T13:52:41;14.82;;;2.10;;
39822;SDS011;25499;53.958;10.970;2023-07-02T13:55:08;9.63;;;1.90;;
39822;SDS011;25499;53.958;10.970;2023-07-02T13:57:35;7.38;;;1.80;;
39822;SDS011;25499;53.958;10.970;2023-07-02T14:00:04;11.95;;;1.98;;
39822;SDS011;25499;53.958;10.970;2023-07-02T14:02:33;8.40;;;1.90;;
39822;SDS011;25499;53.958;10.970;2023-07-02T14:04:59;13.15;;;2.05;;
39822;SDS011;25499;53.958;10.970;2023-07-02T14:07:26;8.80;;;2.17;;
39822;SDS011;25499;53.958;10.970;2023-07-02T14:09:53;8.57;;;1.85;;
39822;SDS011;25499;53.958;10.970;2023-07-02T14:12:20;8.57;;;1.45;;
39822;SDS011;25499;53.958;10.970;2023-07-02T14:14:47;7.93;;;1.70;;
39822;SDS011;25499;53.958;10.970;2023-07-02T14:17:15;6.10;;;1.33;;
39822;SDS011;25499;53.958;10.970;2023-07-02T14:19:43;8.73;;;2.38;;
39822;SDS011;25499;53.958;10.970;2023-07-02T14:22:10;6.70;;;1.65;;
39822;SDS011;25499;53.958;10.970;2023-07-02T14:24:37;8.70;;;1.40;;
39822;SDS011;25499;53.958;10.970;2023-07-02T14:27:04;7.47;;;1.40;;
39822;SDS011;25499;53.958;10.970;2023-07-02T14:29:31;5.68;;;1.65;;
39822;SDS011;25499;53.958;10.970;2023-07-02T14:31:58;7.10;;;1.70;;
39822;SDS011;25499;53.958;10.970;2023-07-02T14:34:26;6.05;;;2.00;;
39822;SDS011;25499;53.958;10.970;2023-07-02T14:36:53;8.80;;;1.75;;
39822;SDS011;25499;53.958;10.970;2023-07-02T14:39:20;10.07;;;2.08;;
39822;SDS011;25499;53.958;10.970;2023-07-02T14:41:47;10.75;;;1.85;;
39822;SDS011;25499;53.958;10.970;2023-07-02T14:44:14;11.52;;;1.90;;
39822;SDS011;25499;53.958;10.970;2023-07-02T14:46:41;11.02;;;2.17;;
39822;SDS011;25499;53.958;10.970;2023-07-02T14:49:08;7.70;;;1.90;;
39822;SDS011;25499;53.958;10.970;2023-07-02T14:51:36;8.55;;;2.10;;
39822;SDS011;25499;53.958;10.970;2023-07-02T14:54:03;6.05;;;2.05;;
39822;SDS011;25499;53.958;10.970;2023-07-02T14:56:31;8.00;;;1.90;;
39822;SDS011;25499;53.958;10.970;2023-07-02T14:58:58;7.68;;;2.15;;
39822;SDS011;25499;53.958;10.970;2023-07-02T15:01:25;11.50;;;2.22;;
39822;SDS011;25499;53.958;10.970;2023-07-02T15:03:52;10.75;;;2.20;;
39822;SDS011;25499;53.958;10.970;2023-07-02T15:06:18;8.85;;;2.20;;
39822;SDS011;25499;53.958;10.970;2023-07-02T15:08:48;6.38;;;2.10;;
39822;SDS011;25499;53.958;10.970;2023-07-02T15:11:15;10.00;;;2.08;;
39822;SDS011;25499;53.958;10.970;2023-07-02T15:13:43;9.80;;;2.40;;
39822;SDS011;25499;53.958;10.970;2023-07-02T15:16:11;9.10;;;2.05;;
39822;SDS011;25499;53.958;10.970;2023-07-02T15:18:38;6.93;;;2.13;;
39822;SDS011;25499;53.958;10.970;2023-07-02T15:21:05;7.15;;;1.80;;
39822;SDS011;25499;53.958;10.970;2023-07-02T15:23:32;12.00;;;2.30;;
39822;SDS011;25499;53.958;10.970;2023-07-02T15:26:02;9.30;;;2.00;;
39822;SDS011;25499;53.958;10.970;2023-07-02T15:28:31;8.63;;;2.22;;
39822;SDS011;25499;53.958;10.970;2023-07-02T15:31:03;11.00;;;2.17;;
39822;SDS011;25499;53.958;10.970;2023-07-02T15:33:32;9.82;;;2.38;;
39822;SDS011;25499;53.958;10.970;2023-07-02T15:35:59;10.95;;;2.30;;
39822;SDS011;25499;53.958;10.970;2023-07-02T15:38:27;13.30;;;2.33;;
39822;SDS011;25499;53.958;10.970;2023-07-02T15:41:05;6.13;;;2.08;;
39822;SDS011;25499;53.958;10.970;2023-07-02T15:43:34;12.05;;;2.42;;
39822;SDS011;25499;53.958;10.970;2023-07-02T15:46:01;8.85;;;1.60;;
39822;SDS011;25499;53.958;10.970;2023-07-02T15:48:28;6.45;;;2.03;;
39822;SDS011;25499;53.958;10.970;2023-07-02T15:50:54;10.70;;;1.65;;
39822;SDS011;25499;53.958;10.970;2023-07-02T15:53:21;8.90;;;1.95;;
39822;SDS011;25499;53.958;10.970;2023-07-02T15:55:53;6.78;;;1.80;;
39822;SDS011;25499;53.958;10.970;2023-07-02T15:58:22;7.35;;;1.67;;
39822;SDS011;25499;53.958;10.970;2023-07-02T16:00:48;8.13;;;1.83;;
39822;SDS011;25499;53.958;10.970;2023-07-02T16:03:15;9.55;;;1.85;;
39822;SDS011;25499;53.958;10.970;2023-07-02T16:05:42;10.85;;;2.30;;
39822;SDS011;25499;53.958;10.970;2023-07-02T16:08:09;10.60;;;1.80;;
39822;SDS011;25499;53.958;10.970;2023-07-02T16:10:39;9.43;;;2.22;;
39822;SDS011;25499;53.958;10.970;2023-07-02T16:13:06;6.95;;;2.10;;
39822;SDS011;25499;53.958;10.970;2023-07-02T16:15:37;7.53;;;1.90;;
39822;SDS011;25499;53.958;10.970;2023-07-02T16:18:05;9.68;;;1.95;;
39822;SDS011;25499;53.958;10.970;2023-07-02T16:20:33;9.02;;;1.92;;
39822;SDS011;25499;53.958;10.970;2023-07-02T16:23:00;9.40;;;2.28;;
39822;SDS011;25499;53.958;10.970;2023-07-02T16:25:27;9.18;;;2.10;;
39822;SDS011;25499;53.958;10.970;2023-07-02T16:27:54;9.77;;;1.95;;
39822;SDS011;25499;53.958;10.970;2023-07-02T16:30:21;5.28;;;2.00;;
39822;SDS011;25499;53.958;10.970;2023-07-02T16:32:50;8.45;;;1.85;;
39822;SDS011;25499;53.958;10.970;2023-07-02T16:35:16;8.30;;;2.17;;
39822;SDS011;25499;53.958;10.970;2023-07-02T16:37:44;7.35;;;2.00;;
39822;SDS011;25499;53.958;10.970;2023-07-02T16:40:10;12.15;;;1.90;;
39822;SDS011;25499;53.958;10.970;2023-07-02T16:42:37;9.48;;;2.15;;
39822;SDS011;25499;53.958;10.970;2023-07-02T16:45:05;14.75;;;2.80;;
39822;SDS011;25499;53.958;10.970;2023-07-02T16:47:33;11.38;;;2.15;;
39822;SDS011;25499;53.958;10.970;2023-07-02T16:50:02;10.35;;;2.83;;
39822;SDS011;25499;53.958;10.970;2023-07-02T16:52:29;11.68;;;2.53;;
39822;SDS011;25499;53.958;10.970;2023-07-02T16:54:56;18.17;;;2.72;;
39822;SDS011;25499;53.958;10.970;2023-07-02T16:57:23;8.45;;;3.00;;
39822;SDS011;25499;53.958;10.970;2023-07-02T16:59:50;13.10;;;2.90;;
39822;SDS011;25499;53.958;10.970;2023-07-02T17:02:18;10.63;;;2.80;;
39822;SDS011;25499;53.958;10.970;2023-07-02T17:04:45;10.90;;;2.70;;
39822;SDS011;25499;53.958;10.970;2023-07-02T17:07:13;10.13;;;2.72;;
39822;SDS011;25499;53.958;10.970;2023-07-02T17:09:40;12.45;;;2.67;;
39822;SDS011;25499;53.958;10.970;2023-07-02T17:12:11;7.90;;;2.53;;
39822;SDS011;25499;53.958;10.970;2023-07-02T17:14:40;11.70;;;2.60;;
39822;SDS011;25499;53.958;10.970;2023-07-02T17:17:09;10.93;;;2.70;;
39822;SDS011;25499;53.958;10.970;2023-07-02T17:19:39;9.13;;;2.70;;
39822;SDS011;25499;53.958;10.970;2023-07-02T17:22:10;10.20;;;3.40;;
39822;SDS011;25499;53.958;10.970;2023-07-02T17:24:39;13.15;;;3.03;;
39822;SDS011;25499;53.958;10.970;2023-07-02T17:27:08;14.70;;;2.37;;
39822;SDS011;25499;53.958;10.970;2023-07-02T17:29:36;12.00;;;3.10;;
39822;SDS011;25499;53.958;10.970;2023-07-02T17:32:03;9.73;;;2.92;;
39822;SDS011;25499;53.958;10.970;2023-07-02T17:34:33;13.57;;;2.63;;
39822;SDS011;25499;53.958;10.970;2023-07-02T17:37:01;10.80;;;2.67;;
39822;SDS011;25499;53.958;10.970;2023-07-02T17:39:30;12.82;;;3.05;;
39822;SDS011;25499;53.958;10.970;2023-07-02T17:41:59;12.43;;;2.75;;
39822;SDS011;25499;53.958;10.970;2023-07-02T17:44:27;11.82;;;2.72;;
39822;SDS011;25499;53.958;10.970;2023-07-02T17:46:57;10.75;;;3.42;;
39822;SDS011;25499;53.958;10.970;2023-07-02T17:49:26;15.80;;;3.07;;
39822;SDS011;25499;53.958;10.970;2023-07-02T17:51:54;8.35;;;2.80;;
39822;SDS011;25499;53.958;10.970;2023-07-02T17:54:21;8.48;;;2.55;;
39822;SDS011;25499;53.958;10.970;2023-07-02T17:56:50;8.93;;;2.83;;
39822;SDS011;25499;53.958;10.970;2023-07-02T17:59:20;14.98;;;2.75;;
39822;SDS011;25499;53.958;10.970;2023-07-02T18:01:50;6.88;;;2.42;;
39822;SDS011;25499;53.958;10.970;2023-07-02T18:04:18;6.43;;;2.42;;
39822;SDS011;25499;53.958;10.970;2023-07-02T18:06:49;9.07;;;2.67;;
39822;SDS011;25499;53.958;10.970;2023-07-02T18:09:22;10.20;;;2.90;;
39822;SDS011;25499;53.958;10.970;2023-07-02T18:11:49;8.05;;;2.45;;
39822;SDS011;25499;53.958;10.970;2023-07-02T18:14:16;11.05;;;2.70;;
39822;SDS011;25499;53.958;10.970;2023-07-02T18:16:45;12.07;;;2.70;;
39822;SDS011;25499;53.958;10.970;2023-07-02T18:19:12;8.82;;;2.75;;
39822;SDS011;25499;53.958;10.970;2023-07-02T18:21:39;11.30;;;2.53;;
39822;SDS011;25499;53.958;10.970;2023-07-02T18:24:05;7.22;;;2.40;;
39822;SDS011;25499;53.958;10.970;2023-07-02T18:26:32;10.77;;;2.63;;
39822;SDS011;25499;53.958;10.970;2023-07-02T18:28:59;9.15;;;3.08;;
39822;SDS011;25499;53.958;10.970;2023-07-02T18:31:26;9.70;;;2.95;;
39822;SDS011;25499;53.958;10.970;2023-07-02T18:33:54;13.32;;;2.70;;
39822;SDS011;25499;53.958;10.970;2023-07-02T18:36:21;11.25;;;3.15;;
39822;SDS011;25499;53.958;10.970;2023-07-02T18:38:48;10.43;;;3.00;;
39822;SDS011;25499;53.958;10.970;2023-07-02T18:41:15;13.85;;;3.05;;
39822;SDS011;25499;53.958;10.970;2023-07-02T18:43:43;9.07;;;2.95;;
39822;SDS011;25499;53.958;10.970;2023-07-02T18:46:10;12.45;;;2.75;;
39822;SDS011;25499;53.958;10.970;2023-07-02T18:48:37;10.80;;;3.13;;
39822;SDS011;25499;53.958;10.970;2023-07-02T18:51:05;7.95;;;2.70;;
39822;SDS011;25499;53.958;10.970;2023-07-02T18:53:33;9.48;;;3.00;;
39822;SDS011;25499;53.958;10.970;2023-07-02T18:56:01;8.90;;;2.70;;
39822;SDS011;25499;53.958;10.970;2023-07-02T18:58:30;15.82;;;3.25;;
39822;SDS011;25499;53.958;10.970;2023-07-02T19:00:58;10.68;;;3.20;;
39822;SDS011;25499;53.958;10.970;2023-07-02T19:03:25;11.38;;;3.38;;
39822;SDS011;25499;53.958;10.970;2023-07-02T19:05:51;13.35;;;3.00;;
39822;SDS011;25499;53.958;10.970;2023-07-02T19:08:20;10.98;;;3.28;;
39822;SDS011;25499;53.958;10.970;2023-07-02T19:10:47;8.15;;;3.05;;
39822;SDS011;25499;53.958;10.970;2023-07-02T19:13:24;8.68;;;2.90;;
39822;SDS011;25499;53.958;10.970;2023-07-02T19:15:51;8.52;;;3.25;;
39822;SDS011;25499;53.958;10.970;2023-07-02T19:18:18;10.98;;;3.50;;
39822;SDS011;25499;53.958;10.970;2023-07-02T19:20:45;12.48;;;3.15;;
39822;SDS011;25499;53.958;10.970;2023-07-02T19:23:11;11.18;;;3.17;;
39822;SDS011;25499;53.958;10.970;2023-07-02T19:25:40;9.73;;;3.20;;
39822;SDS011;25499;53.958;10.970;2023-07-02T19:28:06;10.77;;;3.13;;
39822;SDS011;25499;53.958;10.970;2023-07-02T19:30:33;11.07;;;2.88;;
39822;SDS011;25499;53.958;10.970;2023-07-02T19:33:00;14.38;;;3.20;;
39822;SDS011;25499;53.958;10.970;2023-07-02T19:35:27;9.90;;;3.38;;
39822;SDS011;25499;53.958;10.970;2023-07-02T19:37:55;11.93;;;3.38;;
39822;SDS011;25499;53.958;10.970;2023-07-02T19:40:22;9.57;;;3.35;;
39822;SDS011;25499;53.958;10.970;2023-07-02T19:42:51;10.30;;;3.40;;
39822;SDS011;25499;53.958;10.970;2023-07-02T19:45:18;9.52;;;3.00;;
39822;SDS011;25499;53.958;10.970;2023-07-02T19:47:44;11.25;;;3.20;;
39822;SDS011;25499;53.958;10.970;2023-07-02T19:50:11;11.25;;;3.55;;
39822;SDS011;25499;53.958;10.970;2023-07-02T19:52:38;11.82;;;3.35;;